Estación Meteorológica Peña el Pijo (Robertgarden) [ 12/06/23 10:24:34 CET ]

Fecha Hora Presion(HPa) Temp (°C) Humedad % Rocio (°C) Viento ( m/s) Direccion Lluvia 1Hora(mm) Lluvia 24H(mm) LLuvia Total(mm)
2008-Sep-15 01:05:15 1014.700 9.9 48 -0.6         251.21
2008-Sep-15 02:05:20 1014.400 8.9 53 -0.2         251.21
2008-Sep-15 03:05:16 1014.200 7.9 60 0.6         251.21
2008-Sep-15 04:05:28 1014.100 7.3 60 0.1         251.21
2008-Sep-15 05:05:16 1013.500 6.9 61 -0.1         251.21
2008-Sep-15 06:05:22 1013.300 5.9 67 0.2         251.21
2008-Sep-15 07:05:17 1013.200 5.8 68 0.4         251.21
2008-Sep-15 08:05:24 1013.600 5.4 70 0.4         251.21
2008-Sep-15 09:05:20 1013.600 10.2 65 3.9         251.21
2008-Sep-15 10:05:17 1013.300 17.9 39 3.7         251.21
2008-Sep-15 11:05:18 1013.300 24.1 28 4.3         251.21
2008-Sep-15 12:05:14 1013.100 26.6 20 1.8         251.21
2008-Sep-15 13:05:24 1012.700 29.1 17 1.0         251.21
2008-Sep-15 14:05:18 1012.200 29.8 14 -1.3         251.21
2008-Sep-15 15:05:15 1011.900 29.8 14 -1.3         251.21
2008-Sep-15 16:05:15 1011.300 31.2 13 -1.1         251.21
2008-Sep-15 17:05:16 1010.600 31.2 11 -3.0         251.21
2008-Sep-15 18:05:19 1010.900 30.8 12 -2.4         251.21
2008-Sep-15 19:05:16 1010.900 25.9 15 -3.4         251.21
2008-Sep-15 20:05:14 1011.100 22.8 18 -3.1         251.21
2008-Sep-15 21:05:14 1011.600 16.3 35 0.7         251.21
2008-Sep-15 22:05:18 1012.300 12.9 46 1.5         251.21
2008-Sep-15 23:05:16 1012.300 11.9 50 1.8         251.21

Temperatura Máxima:31°    Temperatura Mínima:
Presión Máxima:1014.700 Hpa    Presión Mínima:1010.600 Hpa


Volver